sensor_id;sensor_type;location;lat;lon;timestamp;temperature;humidity
13322;DHT22;6730;46.248;6.930;2023-04-01T00:00:58;6.90;99.90
13322;DHT22;6730;46.248;6.930;2023-04-01T00:03:25;5.90;99.90
13322;DHT22;6730;46.248;6.930;2023-04-01T00:05:58;5.90;99.90
13322;DHT22;6730;46.248;6.930;2023-04-01T00:08:25;6.10;99.90
13322;DHT22;6730;46.248;6.930;2023-04-01T00:10:52;6.50;99.90
13322;DHT22;6730;46.248;6.930;2023-04-01T00:13:18;6.70;99.90
13322;DHT22;6730;46.248;6.930;2023-04-01T00:15:44;6.80;99.90
13322;DHT22;6730;46.248;6.930;2023-04-01T00:18:13;6.80;99.90
13322;DHT22;6730;46.248;6.930;2023-04-01T00:20:49;6.90;99.90
13322;DHT22;6730;46.248;6.930;2023-04-01T00:23:18;6.90;99.90
13322;DHT22;6730;46.248;6.930;2023-04-01T00:25:48;7.00;99.90
13322;DHT22;6730;46.248;6.930;2023-04-01T00:28:17;7.00;99.90
13322;DHT22;6730;46.248;6.930;2023-04-01T00:30:58;6.80;99.90
13322;DHT22;6730;46.248;6.930;2023-04-01T00:33:28;6.80;99.90
13322;DHT22;6730;46.248;6.930;2023-04-01T00:35:55;6.80;99.90
13322;DHT22;6730;46.248;6.930;2023-04-01T00:38:21;7.00;99.90
13322;DHT22;6730;46.248;6.930;2023-04-01T00:40:47;7.00;99.90
13322;DHT22;6730;46.248;6.930;2023-04-01T00:43:24;6.80;99.90
13322;DHT22;6730;46.248;6.930;2023-04-01T00:45:50;6.90;99.90
13322;DHT22;6730;46.248;6.930;2023-04-01T00:48:27;6.70;99.90
13322;DHT22;6730;46.248;6.930;2023-04-01T00:51:26;6.80;99.90
13322;DHT22;6730;46.248;6.930;2023-04-01T00:53:55;6.80;99.90
13322;DHT22;6730;46.248;6.930;2023-04-01T00:56:35;6.80;99.90
13322;DHT22;6730;46.248;6.930;2023-04-01T00:59:08;6.80;99.90
13322;DHT22;6730;46.248;6.930;2023-04-01T01:01:36;6.70;99.90
13322;DHT22;6730;46.248;6.930;2023-04-01T01:04:02;6.70;99.90
13322;DHT22;6730;46.248;6.930;2023-04-01T01:12:19;7.00;99.90
13322;DHT22;6730;46.248;6.930;2023-04-01T01:26:11;6.70;99.90
13322;DHT22;6730;46.248;6.930;2023-04-01T01:29:02;6.80;99.90
13322;DHT22;6730;46.248;6.930;2023-04-01T01:37:17;6.50;99.90
13322;DHT22;6730;46.248;6.930;2023-04-01T01:39:48;6.40;99.90
13322;DHT22;6730;46.248;6.930;2023-04-01T01:42:16;5.90;99.90
13322;DHT22;6730;46.248;6.930;2023-04-01T01:44:46;5.90;99.90
13322;DHT22;6730;46.248;6.930;2023-04-01T01:47:14;6.20;99.90
13322;DHT22;6730;46.248;6.930;2023-04-01T01:49:41;6.40;99.90
13322;DHT22;6730;46.248;6.930;2023-04-01T01:52:08;6.50;99.90
13322;DHT22;6730;46.248;6.930;2023-04-01T01:54:34;6.50;99.90
13322;DHT22;6730;46.248;6.930;2023-04-01T01:57:09;6.40;99.90
13322;DHT22;6730;46.248;6.930;2023-04-01T01:59:37;6.30;99.90
13322;DHT22;6730;46.248;6.930;2023-04-01T02:02:05;6.30;99.90
13322;DHT22;6730;46.248;6.930;2023-04-01T02:04:35;6.30;99.90
13322;DHT22;6730;46.248;6.930;2023-04-01T02:07:03;6.20;99.90
13322;DHT22;6730;46.248;6.930;2023-04-01T02:09:30;6.20;99.90
13322;DHT22;6730;46.248;6.930;2023-04-01T02:11:59;6.00;99.90
13322;DHT22;6730;46.248;6.930;2023-04-01T02:19:37;5.90;99.90
13322;DHT22;6730;46.248;6.930;2023-04-01T02:22:07;5.40;99.90
13322;DHT22;6730;46.248;6.930;2023-04-01T02:24:35;5.30;99.90
13322;DHT22;6730;46.248;6.930;2023-04-01T02:27:03;5.30;99.90
13322;DHT22;6730;46.248;6.930;2023-04-01T02:29:29;5.30;99.90
13322;DHT22;6730;46.248;6.930;2023-04-01T02:31:55;5.40;99.90
13322;DHT22;6730;46.248;6.930;2023-04-01T02:34:22;5.70;99.90
13322;DHT22;6730;46.248;6.930;2023-04-01T02:36:50;6.10;99.90
13322;DHT22;6730;46.248;6.930;2023-04-01T02:39:16;6.30;99.90
13322;DHT22;6730;46.248;6.930;2023-04-01T02:41:44;6.50;99.90
13322;DHT22;6730;46.248;6.930;2023-04-01T02:44:11;6.40;99.90
13322;DHT22;6730;46.248;6.930;2023-04-01T02:46:37;6.10;99.90
13322;DHT22;6730;46.248;6.930;2023-04-01T02:49:04;6.20;99.90
13322;DHT22;6730;46.248;6.930;2023-04-01T02:51:30;6.50;99.90
13322;DHT22;6730;46.248;6.930;2023-04-01T02:53:55;6.70;99.90
13322;DHT22;6730;46.248;6.930;2023-04-01T02:56:21;6.70;99.90
13322;DHT22;6730;46.248;6.930;2023-04-01T02:58:47;6.60;99.90
13322;DHT22;6730;46.248;6.930;2023-04-01T03:01:13;6.50;99.90
13322;DHT22;6730;46.248;6.930;2023-04-01T03:03:39;6.30;99.90
13322;DHT22;6730;46.248;6.930;2023-04-01T03:06:09;6.60;99.90
13322;DHT22;6730;46.248;6.930;2023-04-01T03:08:35;6.80;99.90
13322;DHT22;6730;46.248;6.930;2023-04-01T03:11:01;6.50;99.90
13322;DHT22;6730;46.248;6.930;2023-04-01T03:13:27;6.40;99.90
13322;DHT22;6730;46.248;6.930;2023-04-01T03:15:53;6.40;99.90
13322;DHT22;6730;46.248;6.930;2023-04-01T03:18:19;6.40;99.90
13322;DHT22;6730;46.248;6.930;2023-04-01T03:20:44;6.50;99.90
13322;DHT22;6730;46.248;6.930;2023-04-01T03:23:10;6.40;99.90
13322;DHT22;6730;46.248;6.930;2023-04-01T03:25:36;6.50;99.90
13322;DHT22;6730;46.248;6.930;2023-04-01T03:28:02;6.50;99.90
13322;DHT22;6730;46.248;6.930;2023-04-01T03:30:27;6.70;99.90
13322;DHT22;6730;46.248;6.930;2023-04-01T03:32:55;6.70;99.90
13322;DHT22;6730;46.248;6.930;2023-04-01T03:35:21;6.80;99.90
13322;DHT22;6730;46.248;6.930;2023-04-01T03:37:53;6.70;99.90
13322;DHT22;6730;46.248;6.930;2023-04-01T03:40:19;6.70;99.90
13322;DHT22;6730;46.248;6.930;2023-04-01T03:42:45;6.50;99.90
13322;DHT22;6730;46.248;6.930;2023-04-01T03:45:10;6.50;99.90
13322;DHT22;6730;46.248;6.930;2023-04-01T03:47:38;6.50;99.90
13322;DHT22;6730;46.248;6.930;2023-04-01T03:50:04;6.60;99.90
13322;DHT22;6730;46.248;6.930;2023-04-01T03:52:30;6.50;99.90
13322;DHT22;6730;46.248;6.930;2023-04-01T03:54:56;6.20;99.90
13322;DHT22;6730;46.248;6.930;2023-04-01T03:57:21;6.00;99.90
13322;DHT22;6730;46.248;6.930;2023-04-01T03:59:47;6.30;99.90
13322;DHT22;6730;46.248;6.930;2023-04-01T04:02:13;6.40;99.90
13322;DHT22;6730;46.248;6.930;2023-04-01T04:04:38;6.50;99.90
13322;DHT22;6730;46.248;6.930;2023-04-01T04:07:04;6.50;99.90
13322;DHT22;6730;46.248;6.930;2023-04-01T04:09:31;6.40;99.90
13322;DHT22;6730;46.248;6.930;2023-04-01T04:11:57;6.10;99.90
13322;DHT22;6730;46.248;6.930;2023-04-01T04:14:23;6.00;99.90
13322;DHT22;6730;46.248;6.930;2023-04-01T04:16:48;5.70;99.90
13322;DHT22;6730;46.248;6.930;2023-04-01T04:19:14;5.80;99.90
13322;DHT22;6730;46.248;6.930;2023-04-01T04:21:40;5.90;99.90
13322;DHT22;6730;46.248;6.930;2023-04-01T04:24:06;6.20;99.90
13322;DHT22;6730;46.248;6.930;2023-04-01T04:26:32;6.20;99.90
13322;DHT22;6730;46.248;6.930;2023-04-01T04:28:58;6.20;99.90
13322;DHT22;6730;46.248;6.930;2023-04-01T04:31:24;6.10;99.90
13322;DHT22;6730;46.248;6.930;2023-04-01T04:33:50;6.10;99.90
13322;DHT22;6730;46.248;6.930;2023-04-01T04:36:17;5.80;99.90
13322;DHT22;6730;46.248;6.930;2023-04-01T04:38:43;5.80;99.90
13322;DHT22;6730;46.248;6.930;2023-04-01T04:41:12;6.00;99.90
13322;DHT22;6730;46.248;6.930;2023-04-01T04:43:40;6.00;99.90
13322;DHT22;6730;46.248;6.930;2023-04-01T04:46:10;6.20;99.90
13322;DHT22;6730;46.248;6.930;2023-04-01T04:48:36;6.30;99.90
13322;DHT22;6730;46.248;6.930;2023-04-01T04:51:02;6.40;99.90
13322;DHT22;6730;46.248;6.930;2023-04-01T04:53:28;6.40;99.90
13322;DHT22;6730;46.248;6.930;2023-04-01T04:55:54;6.40;99.90
13322;DHT22;6730;46.248;6.930;2023-04-01T04:58:20;6.50;99.90
13322;DHT22;6730;46.248;6.930;2023-04-01T05:00:46;5.90;99.90
13322;DHT22;6730;46.248;6.930;2023-04-01T05:03:13;5.30;99.90
13322;DHT22;6730;46.248;6.930;2023-04-01T05:05:39;5.10;99.90
13322;DHT22;6730;46.248;6.930;2023-04-01T05:08:05;5.40;99.90
13322;DHT22;6730;46.248;6.930;2023-04-01T05:10:31;5.70;99.90
13322;DHT22;6730;46.248;6.930;2023-04-01T05:12:58;6.00;99.90
13322;DHT22;6730;46.248;6.930;2023-04-01T05:15:24;6.10;99.90
13322;DHT22;6730;46.248;6.930;2023-04-01T05:17:50;6.10;99.90
13322;DHT22;6730;46.248;6.930;2023-04-01T05:20:16;6.00;99.90
13322;DHT22;6730;46.248;6.930;2023-04-01T05:22:42;5.70;99.90
13322;DHT22;6730;46.248;6.930;2023-04-01T05:25:08;5.60;99.90
13322;DHT22;6730;46.248;6.930;2023-04-01T05:27:34;5.70;99.90
13322;DHT22;6730;46.248;6.930;2023-04-01T05:30:00;5.90;99.90
13322;DHT22;6730;46.248;6.930;2023-04-01T05:32:25;6.00;99.90
13322;DHT22;6730;46.248;6.930;2023-04-01T05:34:52;6.20;99.90
13322;DHT22;6730;46.248;6.930;2023-04-01T05:37:18;6.30;99.90
13322;DHT22;6730;46.248;6.930;2023-04-01T05:39:44;6.20;99.90
13322;DHT22;6730;46.248;6.930;2023-04-01T05:42:09;6.40;99.90
13322;DHT22;6730;46.248;6.930;2023-04-01T05:44:36;6.30;99.90
13322;DHT22;6730;46.248;6.930;2023-04-01T05:47:03;6.50;99.90
13322;DHT22;6730;46.248;6.930;2023-04-01T05:49:29;6.50;99.90
13322;DHT22;6730;46.248;6.930;2023-04-01T05:51:55;6.50;99.90
13322;DHT22;6730;46.248;6.930;2023-04-01T05:54:21;6.60;99.90
13322;DHT22;6730;46.248;6.930;2023-04-01T05:56:46;6.40;99.90
13322;DHT22;6730;46.248;6.930;2023-04-01T05:59:12;6.40;99.90
13322;DHT22;6730;46.248;6.930;2023-04-01T06:01:38;6.40;99.90
13322;DHT22;6730;46.248;6.930;2023-04-01T06:04:04;6.30;99.90
13322;DHT22;6730;46.248;6.930;2023-04-01T06:06:31;6.30;99.90
13322;DHT22;6730;46.248;6.930;2023-04-01T06:09:07;6.50;99.90
13322;DHT22;6730;46.248;6.930;2023-04-01T06:14:37;6.20;99.90
13322;DHT22;6730;46.248;6.930;2023-04-01T06:37:38;6.00;99.90
13322;DHT22;6730;46.248;6.930;2023-04-01T06:43:18;6.30;99.90
13322;DHT22;6730;46.248;6.930;2023-04-01T06:56:36;6.30;99.90
13322;DHT22;6730;46.248;6.930;2023-04-01T06:59:08;6.00;99.90
13322;DHT22;6730;46.248;6.930;2023-04-01T07:01:53;5.90;99.90
13322;DHT22;6730;46.248;6.930;2023-04-01T07:04:33;6.30;99.90
13322;DHT22;6730;46.248;6.930;2023-04-01T07:07:03;6.40;99.90
13322;DHT22;6730;46.248;6.930;2023-04-01T07:09:43;6.40;99.90
13322;DHT22;6730;46.248;6.930;2023-04-01T07:12:44;6.40;99.90
13322;DHT22;6730;46.248;6.930;2023-04-01T07:17:43;6.50;99.90
13322;DHT22;6730;46.248;6.930;2023-04-01T07:20:18;6.30;99.90
13322;DHT22;6730;46.248;6.930;2023-04-01T07:22:48;6.30;99.90
13322;DHT22;6730;46.248;6.930;2023-04-01T07:25:17;6.40;99.90
13322;DHT22;6730;46.248;6.930;2023-04-01T07:27:45;6.60;99.90
13322;DHT22;6730;46.248;6.930;2023-04-01T07:30:20;6.60;99.90
13322;DHT22;6730;46.248;6.930;2023-04-01T07:43:40;7.40;99.90
13322;DHT22;6730;46.248;6.930;2023-04-01T07:49:10;7.70;99.90
13322;DHT22;6730;46.248;6.930;2023-04-01T07:51:42;7.30;99.90
13322;DHT22;6730;46.248;6.930;2023-04-01T07:54:19;7.00;99.90
13322;DHT22;6730;46.248;6.930;2023-04-01T07:57:11;6.80;99.90
13322;DHT22;6730;46.248;6.930;2023-04-01T08:08:11;6.70;99.90
13322;DHT22;6730;46.248;6.930;2023-04-01T08:10:59;6.70;99.90
13322;DHT22;6730;46.248;6.930;2023-04-01T08:13:46;6.80;99.90
13322;DHT22;6730;46.248;6.930;2023-04-01T08:16:29;6.90;99.90
13322;DHT22;6730;46.248;6.930;2023-04-01T08:22:09;6.70;99.90
13322;DHT22;6730;46.248;6.930;2023-04-01T08:24:42;7.10;99.90
13322;DHT22;6730;46.248;6.930;2023-04-01T08:27:23;7.20;99.90
13322;DHT22;6730;46.248;6.930;2023-04-01T08:30:06;7.30;99.90
13322;DHT22;6730;46.248;6.930;2023-04-01T08:32:44;7.00;99.90
13322;DHT22;6730;46.248;6.930;2023-04-01T08:35:29;6.90;99.90
13322;DHT22;6730;46.248;6.930;2023-04-01T08:38:00;7.20;99.90
13322;DHT22;6730;46.248;6.930;2023-04-01T08:40:53;7.50;99.90
13322;DHT22;6730;46.248;6.930;2023-04-01T08:55:13;8.00;99.90
13322;DHT22;6730;46.248;6.930;2023-04-01T09:00:57;8.70;99.90
13322;DHT22;6730;46.248;6.930;2023-04-01T09:14:29;8.00;99.90
13322;DHT22;6730;46.248;6.930;2023-04-01T09:22:25;9.00;99.90
13322;DHT22;6730;46.248;6.930;2023-04-01T09:30:47;8.80;99.90
13322;DHT22;6730;46.248;6.930;2023-04-01T09:33:46;8.90;99.90
13322;DHT22;6730;46.248;6.930;2023-04-01T09:38:58;8.70;99.90
13322;DHT22;6730;46.248;6.930;2023-04-01T09:41:39;8.70;99.90
13322;DHT22;6730;46.248;6.930;2023-04-01T09:44:15;8.80;99.90
13322;DHT22;6730;46.248;6.930;2023-04-01T09:49:37;9.30;99.90
13322;DHT22;6730;46.248;6.930;2023-04-01T09:52:23;9.20;99.90
13322;DHT22;6730;46.248;6.930;2023-04-01T09:55:28;9.40;99.90
13322;DHT22;6730;46.248;6.930;2023-04-01T09:58:10;9.20;99.90
13322;DHT22;6730;46.248;6.930;2023-04-01T10:17:51;10.70;99.90
13322;DHT22;6730;46.248;6.930;2023-04-01T10:29:23;11.30;99.90
13322;DHT22;6730;46.248;6.930;2023-04-01T10:58:13;11.90;99.90
13322;DHT22;6730;46.248;6.930;2023-04-01T11:04:17;12.20;99.90
13322;DHT22;6730;46.248;6.930;2023-04-01T11:09:49;12.70;99.90
13322;DHT22;6730;46.248;6.930;2023-04-01T11:20:29;13.30;99.90
13322;DHT22;6730;46.248;6.930;2023-04-01T11:26:22;13.30;99.90
13322;DHT22;6730;46.248;6.930;2023-04-01T11:36:51;13.40;99.70
13322;DHT22;6730;46.248;6.930;2023-04-01T11:39:58;13.40;99.90
13322;DHT22;6730;46.248;6.930;2023-04-01T11:53:42;13.70;99.90
13322;DHT22;6730;46.248;6.930;2023-04-01T11:56:31;13.30;99.90
13322;DHT22;6730;46.248;6.930;2023-04-01T12:01:59;13.00;99.90
13322;DHT22;6730;46.248;6.930;2023-04-01T12:10:33;12.10;99.90
13322;DHT22;6730;46.248;6.930;2023-04-01T12:35:21;9.40;99.90
13322;DHT22;6730;46.248;6.930;2023-04-01T12:41:08;9.00;99.90
13322;DHT22;6730;46.248;6.930;2023-04-01T12:44:03;9.30;99.90
13322;DHT22;6730;46.248;6.930;2023-04-01T12:49:19;10.40;99.90
13322;DHT22;6730;46.248;6.930;2023-04-01T12:52:42;10.70;99.90
13322;DHT22;6730;46.248;6.930;2023-04-01T12:55:35;10.90;99.90
13322;DHT22;6730;46.248;6.930;2023-04-01T12:58:15;10.50;99.90
13322;DHT22;6730;46.248;6.930;2023-04-01T13:04:08;11.20;99.90
13322;DHT22;6730;46.248;6.930;2023-04-01T13:07:18;11.10;99.90
13322;DHT22;6730;46.248;6.930;2023-04-01T13:12:36;10.90;99.90
13322;DHT22;6730;46.248;6.930;2023-04-01T13:18:02;11.00;99.90
13322;DHT22;6730;46.248;6.930;2023-04-01T13:23:33;11.10;99.90
13322;DHT22;6730;46.248;6.930;2023-04-01T13:26:16;11.10;99.90
13322;DHT22;6730;46.248;6.930;2023-04-01T13:29:11;11.40;99.90
13322;DHT22;6730;46.248;6.930;2023-04-01T13:34:59;11.40;99.90
13322;DHT22;6730;46.248;6.930;2023-04-01T13:42:59;11.20;99.90
13322;DHT22;6730;46.248;6.930;2023-04-01T13:48:36;11.60;99.90
13322;DHT22;6730;46.248;6.930;2023-04-01T13:51:07;11.50;99.90
13322;DHT22;6730;46.248;6.930;2023-04-01T14:10:53;11.70;99.90
13322;DHT22;6730;46.248;6.930;2023-04-01T14:18:37;11.40;99.90
13322;DHT22;6730;46.248;6.930;2023-04-01T14:21:29;11.30;99.90
13322;DHT22;6730;46.248;6.930;2023-04-01T14:27:44;11.40;99.90
13322;DHT22;6730;46.248;6.930;2023-04-01T14:43:47;11.40;99.90
13322;DHT22;6730;46.248;6.930;2023-04-01T14:49:42;11.70;99.90
13322;DHT22;6730;46.248;6.930;2023-04-01T14:54:39;11.70;99.90
13322;DHT22;6730;46.248;6.930;2023-04-01T15:00:07;11.60;99.90
13322;DHT22;6730;46.248;6.930;2023-04-01T15:05:15;12.10;99.90
13322;DHT22;6730;46.248;6.930;2023-04-01T15:10:37;12.30;99.90
13322;DHT22;6730;46.248;6.930;2023-04-01T15:24:56;11.70;99.90
13322;DHT22;6730;46.248;6.930;2023-04-01T15:27:33;11.40;99.90
13322;DHT22;6730;46.248;6.930;2023-04-01T15:30:27;11.60;99.90
13322;DHT22;6730;46.248;6.930;2023-04-01T15:33:29;11.90;99.90
13322;DHT22;6730;46.248;6.930;2023-04-01T15:46:58;11.60;99.90
13322;DHT22;6730;46.248;6.930;2023-04-01T15:49:44;11.50;99.90
13322;DHT22;6730;46.248;6.930;2023-04-01T15:52:42;11.00;99.90
13322;DHT22;6730;46.248;6.930;2023-04-01T15:57:44;10.30;99.90
13322;DHT22;6730;46.248;6.930;2023-04-01T16:00:26;10.20;99.90
13322;DHT22;6730;46.248;6.930;2023-04-01T16:03:19;10.10;99.90
13322;DHT22;6730;46.248;6.930;2023-04-01T16:12:07;10.00;99.90
13322;DHT22;6730;46.248;6.930;2023-04-01T16:22:39;8.80;99.90
13322;DHT22;6730;46.248;6.930;2023-04-01T16:25:20;8.80;99.90
13322;DHT22;6730;46.248;6.930;2023-04-01T16:30:59;8.70;99.90
13322;DHT22;6730;46.248;6.930;2023-04-01T16:33:35;8.70;99.90
13322;DHT22;6730;46.248;6.930;2023-04-01T16:39:08;8.80;99.90
13322;DHT22;6730;46.248;6.930;2023-04-01T16:41:48;8.70;99.90
13322;DHT22;6730;46.248;6.930;2023-04-01T16:44:23;8.40;99.90
13322;DHT22;6730;46.248;6.930;2023-04-01T16:46:53;8.40;99.90
13322;DHT22;6730;46.248;6.930;2023-04-01T16:54:43;8.70;99.90
13322;DHT22;6730;46.248;6.930;2023-04-01T16:59:38;8.20;99.90
13322;DHT22;6730;46.248;6.930;2023-04-01T17:02:10;8.10;99.90
13322;DHT22;6730;46.248;6.930;2023-04-01T17:04:48;8.30;99.90
13322;DHT22;6730;46.248;6.930;2023-04-01T17:21:10;7.70;99.90
13322;DHT22;6730;46.248;6.930;2023-04-01T17:32:00;8.40;99.90
13322;DHT22;6730;46.248;6.930;2023-04-01T17:35:01;8.50;99.90
13322;DHT22;6730;46.248;6.930;2023-04-01T17:37:56;8.20;99.90
13322;DHT22;6730;46.248;6.930;2023-04-01T17:49:23;7.80;99.90
13322;DHT22;6730;46.248;6.930;2023-04-01T17:52:00;8.30;99.90
13322;DHT22;6730;46.248;6.930;2023-04-01T17:54:41;8.60;99.90
13322;DHT22;6730;46.248;6.930;2023-04-01T18:11:57;10.10;99.90
13322;DHT22;6730;46.248;6.930;2023-04-01T18:22:53;10.30;99.90
13322;DHT22;6730;46.248;6.930;2023-04-01T18:25:36;10.00;99.90
13322;DHT22;6730;46.248;6.930;2023-04-01T18:28:42;10.10;99.90
13322;DHT22;6730;46.248;6.930;2023-04-01T18:36:19;8.60;99.90
13322;DHT22;6730;46.248;6.930;2023-04-01T18:38:52;7.90;99.90
13322;DHT22;6730;46.248;6.930;2023-04-01T18:44:13;7.90;99.90
13322;DHT22;6730;46.248;6.930;2023-04-01T18:49:56;7.80;99.90
13322;DHT22;6730;46.248;6.930;2023-04-01T18:52:35;7.90;99.90
13322;DHT22;6730;46.248;6.930;2023-04-01T18:57:52;8.00;99.90
13322;DHT22;6730;46.248;6.930;2023-04-01T19:00:28;7.50;99.90
13322;DHT22;6730;46.248;6.930;2023-04-01T19:05:31;7.10;99.90
13322;DHT22;6730;46.248;6.930;2023-04-01T19:22:13;8.60;99.90
13322;DHT22;6730;46.248;6.930;2023-04-01T19:25:01;8.40;99.90
13322;DHT22;6730;46.248;6.930;2023-04-01T19:27:35;8.50;99.90
13322;DHT22;6730;46.248;6.930;2023-04-01T19:46:45;7.80;99.90
13322;DHT22;6730;46.248;6.930;2023-04-01T19:57:47;6.70;99.90
13322;DHT22;6730;46.248;6.930;2023-04-01T20:03:05;7.30;99.90
13322;DHT22;6730;46.248;6.930;2023-04-01T20:05:49;7.70;99.90
13322;DHT22;6730;46.248;6.930;2023-04-01T20:08:29;8.10;99.90
13322;DHT22;6730;46.248;6.930;2023-04-01T20:19:40;8.80;99.90
13322;DHT22;6730;46.248;6.930;2023-04-01T20:22:38;8.90;99.90
13322;DHT22;6730;46.248;6.930;2023-04-01T20:28:09;7.50;99.90
13322;DHT22;6730;46.248;6.930;2023-04-01T20:33:53;7.40;99.90
13322;DHT22;6730;46.248;6.930;2023-04-01T20:42:45;7.20;99.90
13322;DHT22;6730;46.248;6.930;2023-04-01T20:45:34;6.90;99.90
13322;DHT22;6730;46.248;6.930;2023-04-01T20:51:34;6.80;99.90
13322;DHT22;6730;46.248;6.930;2023-04-01T20:54:12;6.40;99.90
13322;DHT22;6730;46.248;6.930;2023-04-01T20:57:16;6.20;99.90
13322;DHT22;6730;46.248;6.930;2023-04-01T21:08:39;6.80;99.90
13322;DHT22;6730;46.248;6.930;2023-04-01T21:14:06;7.60;99.90
13322;DHT22;6730;46.248;6.930;2023-04-01T21:39:54;6.60;99.90
13322;DHT22;6730;46.248;6.930;2023-04-01T21:42:44;6.20;99.90
13322;DHT22;6730;46.248;6.930;2023-04-01T21:54:34;5.70;99.90
13322;DHT22;6730;46.248;6.930;2023-04-01T21:56:56;5.70;99.90
13322;DHT22;6730;46.248;6.930;2023-04-01T22:02:41;5.90;99.90
13322;DHT22;6730;46.248;6.930;2023-04-01T22:05:25;5.90;99.90
13322;DHT22;6730;46.248;6.930;2023-04-01T22:10:51;6.40;99.90
13322;DHT22;6730;46.248;6.930;2023-04-01T22:13:41;6.40;99.90
13322;DHT22;6730;46.248;6.930;2023-04-01T22:21:44;5.70;99.90
13322;DHT22;6730;46.248;6.930;2023-04-01T22:29:38;6.10;99.90
13322;DHT22;6730;46.248;6.930;2023-04-01T22:32:24;5.70;99.90
13322;DHT22;6730;46.248;6.930;2023-04-01T22:35:33;5.50;99.90
13322;DHT22;6730;46.248;6.930;2023-04-01T22:43:36;5.20;99.90
13322;DHT22;6730;46.248;6.930;2023-04-01T22:51:54;5.10;99.90
13322;DHT22;6730;46.248;6.930;2023-04-01T22:54:33;5.10;99.90
13322;DHT22;6730;46.248;6.930;2023-04-01T22:57:08;5.10;99.90
13322;DHT22;6730;46.248;6.930;2023-04-01T23:05:18;5.70;99.90
13322;DHT22;6730;46.248;6.930;2023-04-01T23:10:52;6.30;99.90
13322;DHT22;6730;46.248;6.930;2023-04-01T23:13:31;6.50;99.90
13322;DHT22;6730;46.248;6.930;2023-04-01T23:15:58;6.80;99.90
13322;DHT22;6730;46.248;6.930;2023-04-01T23:21:18;6.00;99.90
13322;DHT22;6730;46.248;6.930;2023-04-01T23:26:23;5.70;99.90
13322;DHT22;6730;46.248;6.930;2023-04-01T23:28:54;5.50;99.90
13322;DHT22;6730;46.248;6.930;2023-04-01T23:33:57;5.50;99.90
13322;DHT22;6730;46.248;6.930;2023-04-01T23:36:24;5.40;99.90
13322;DHT22;6730;46.248;6.930;2023-04-01T23:38:51;5.40;99.90
13322;DHT22;6730;46.248;6.930;2023-04-01T23:41:23;5.40;99.90
13322;DHT22;6730;46.248;6.930;2023-04-01T23:44:07;5.50;99.90
13322;DHT22;6730;46.248;6.930;2023-04-01T23:46:34;5.50;99.90
13322;DHT22;6730;46.248;6.930;2023-04-01T23:49:02;5.40;99.90
13322;DHT22;6730;46.248;6.930;2023-04-01T23:51:35;5.30;99.90
13322;DHT22;6730;46.248;6.930;2023-04-01T23:54:14;5.40;99.90
13322;DHT22;6730;46.248;6.930;2023-04-01T23:56:48;5.40;99.90
13322;DHT22;6730;46.248;6.930;2023-04-01T23:59:38;5.40;99.90
